Time;durP1;ratioP1;P1;durP2;ratioP2;P2;SDS_P1;SDS_P2;PMS_P1;PMS_P2;Temp;Humidity;BMP_temperature;BMP_pressure;BME280_temperature;BME280_humidity;BME280_pressure;Samples;Min_cycle;Max_cycle;Signal;HPM_P1;HPM_P2
2021/12/27 00:01:34;;;;;;;12.50;5.47;;;;;;;;;;4992277;28;20053;-65
2021/12/27 00:04:03;;;;;;;10.38;5.40;;;;;;;;;;4990642;28;20102;-65
2021/12/27 00:06:41;;;;;;;11.75;5.28;;;;;;;;;;4995009;28;20128;-65
2021/12/27 00:09:09;;;;;;;11.55;5.55;;;;;;;;;;4990264;28;20133;-65
2021/12/27 00:11:39;;;;;;;10.75;5.72;;;;;;;;;;4993441;28;20137;-65
2021/12/27 00:14:08;;;;;;;10.40;5.15;;;;;;;;;;4990842;28;20078;-65
2021/12/27 00:16:40;;;;;;;9.57;5.47;;;;;;;;;;4997138;28;20087;-65
2021/12/27 00:19:10;;;;;;;11.15;5.50;;;;;;;;;;4993521;28;20050;-65
2021/12/27 00:21:38;;;;;;;10.35;5.13;;;;;;;;;;4985840;28;20050;-65
2021/12/27 00:24:07;;;;;;;9.32;5.05;;;;;;;;;;4991309;28;20050;-65
2021/12/27 00:26:35;;;;;;;11.82;5.28;;;;;;;;;;4988931;28;20130;-65
2021/12/27 00:29:05;;;;;;;8.68;5.45;;;;;;;;;;4990086;28;20169;-65
2021/12/27 00:31:33;;;;;;;11.55;5.90;;;;;;;;;;5002902;28;20042;-65
2021/12/27 00:34:02;;;;;;;10.80;5.43;;;;;;;;;;4995061;28;20623;-65
2021/12/27 00:36:30;;;;;;;10.50;5.45;;;;;;;;;;4994520;28;20073;-65
2021/12/27 00:38:58;;;;;;;9.13;5.00;;;;;;;;;;4993973;28;20122;-65
2021/12/27 00:41:26;;;;;;;10.95;5.53;;;;;;;;;;5005285;28;20481;-65
2021/12/27 00:43:55;;;;;;;12.35;5.68;;;;;;;;;;4993868;28;20158;-65
2021/12/27 00:46:30;;;;;;;8.20;4.82;;;;;;;;;;4992797;28;20138;-65
2021/12/27 00:48:59;;;;;;;10.27;5.70;;;;;;;;;;4990223;28;20058;-65
2021/12/27 00:51:27;;;;;;;11.23;5.50;;;;;;;;;;4992397;28;20046;-65
2021/12/27 00:53:56;;;;;;;8.52;4.95;;;;;;;;;;4991700;28;20053;-65
2021/12/27 00:56:30;;;;;;;8.57;4.57;;;;;;;;;;4989594;28;20097;-65
2021/12/27 00:59:01;;;;;;;10.10;4.80;;;;;;;;;;4986000;28;20425;-65
2021/12/27 01:01:31;;;;;;;11.65;4.72;;;;;;;;;;4993947;28;20134;-65
2021/12/27 01:04:00;;;;;;;10.05;4.43;;;;;;;;;;4992017;28;20455;-65
2021/12/27 01:06:28;;;;;;;9.45;4.75;;;;;;;;;;4993556;28;20048;-65
2021/12/27 01:08:57;;;;;;;9.27;4.97;;;;;;;;;;4991505;28;20062;-65
2021/12/27 01:11:39;;;;;;;9.48;5.22;;;;;;;;;;4988982;28;20401;-65
2021/12/27 01:14:12;;;;;;;11.05;4.78;;;;;;;;;;4989410;28;20050;-65
2021/12/27 01:16:43;;;;;;;8.23;4.47;;;;;;;;;;4998233;28;20128;-65
2021/12/27 01:19:11;;;;;;;8.35;4.85;;;;;;;;;;4988183;28;20133;-65
2021/12/27 01:21:40;;;;;;;9.02;4.70;;;;;;;;;;4990548;28;20430;-65
2021/12/27 01:24:08;;;;;;;8.45;4.35;;;;;;;;;;4997005;28;20473;-65
2021/12/27 01:26:36;;;;;;;8.13;4.35;;;;;;;;;;4996861;28;20137;-65
2021/12/27 01:29:07;;;;;;;9.27;4.80;;;;;;;;;;4990438;28;20157;-65
2021/12/27 01:31:36;;;;;;;8.20;4.20;;;;;;;;;;5003034;28;20120;-65
2021/12/27 01:34:05;;;;;;;9.05;4.80;;;;;;;;;;4987546;28;20085;-65
2021/12/27 01:36:36;;;;;;;8.60;4.07;;;;;;;;;;4988398;28;20053;-65
2021/12/27 01:39:06;;;;;;;7.43;4.05;;;;;;;;;;4998094;28;20428;-65
2021/12/27 01:41:34;;;;;;;10.38;5.15;;;;;;;;;;5003538;28;20104;-65
2021/12/27 01:44:02;;;;;;;9.02;4.45;;;;;;;;;;4992211;28;20136;-65
2021/12/27 01:46:31;;;;;;;7.85;4.65;;;;;;;;;;4990693;28;20565;-65
2021/12/27 01:49:00;;;;;;;7.45;3.95;;;;;;;;;;4994955;28;20058;-65
2021/12/27 01:51:31;;;;;;;7.05;4.28;;;;;;;;;;4989723;28;20402;-65
2021/12/27 01:53:59;;;;;;;8.95;4.70;;;;;;;;;;4993088;28;20080;-65
2021/12/27 01:56:37;;;;;;;7.80;4.63;;;;;;;;;;4994929;28;20522;-65
2021/12/27 01:59:05;;;;;;;7.30;4.28;;;;;;;;;;4994167;28;20137;-65
2021/12/27 02:01:39;;;;;;;10.05;4.93;;;;;;;;;;5005578;28;20132;-65
2021/12/27 02:04:08;;;;;;;9.60;4.50;;;;;;;;;;4987789;28;20061;-65
2021/12/27 02:06:53;;;;;;;7.55;4.40;;;;;;;;;;4995859;28;20042;-65
2021/12/27 02:09:29;;;;;;;8.23;4.35;;;;;;;;;;4984469;28;20075;-64
2021/12/27 02:11:57;;;;;;;8.57;3.97;;;;;;;;;;4988543;28;20078;-64
2021/12/27 02:14:25;;;;;;;7.93;4.57;;;;;;;;;;4988583;28;20082;-64
2021/12/27 02:16:53;;;;;;;7.30;4.25;;;;;;;;;;4988279;28;20157;-64
2021/12/27 02:19:22;;;;;;;8.48;4.28;;;;;;;;;;4989925;28;20133;-64
2021/12/27 02:22:00;;;;;;;8.60;4.57;;;;;;;;;;4982258;28;20601;-64
2021/12/27 02:24:29;;;;;;;8.80;4.20;;;;;;;;;;4982419;28;20048;-64
2021/12/27 02:26:57;;;;;;;8.23;4.30;;;;;;;;;;4983007;28;20129;-64
2021/12/27 02:29:25;;;;;;;8.80;4.70;;;;;;;;;;4978471;28;20082;-64
2021/12/27 02:31:54;;;;;;;7.95;3.97;;;;;;;;;;4996802;28;20046;-64
2021/12/27 02:34:22;;;;;;;9.00;4.80;;;;;;;;;;4992309;28;20402;-64
2021/12/27 02:36:53;;;;;;;8.43;4.65;;;;;;;;;;4987866;28;20567;-64
2021/12/27 02:39:25;;;;;;;8.55;4.45;;;;;;;;;;4984562;28;20117;-64
2021/12/27 02:41:54;;;;;;;7.55;4.28;;;;;;;;;;4987385;28;20140;-64
2021/12/27 02:44:22;;;;;;;8.10;4.15;;;;;;;;;;4989713;28;20062;-64
2021/12/27 02:46:50;;;;;;;7.95;4.28;;;;;;;;;;5000548;28;20481;-64
2021/12/27 02:49:19;;;;;;;7.57;4.00;;;;;;;;;;4987328;28;20478;-64
2021/12/27 02:51:47;;;;;;;8.40;4.20;;;;;;;;;;4989622;28;20157;-64
2021/12/27 02:54:15;;;;;;;8.00;4.28;;;;;;;;;;4990575;28;20137;-64
2021/12/27 02:56:46;;;;;;;8.27;4.50;;;;;;;;;;4989155;28;20050;-64
2021/12/27 02:59:14;;;;;;;6.93;3.97;;;;;;;;;;4993186;28;20082;-64
2021/12/27 03:01:54;;;;;;;8.26;4.48;;;;;;;;;;4754844;28;10001548;-66
2021/12/27 03:04:22;;;;;;;9.05;4.50;;;;;;;;;;1027357;28;10002221;-64
2021/12/27 03:06:51;;;;;;;6.75;3.92;;;;;;;;;;4996328;28;20051;-64
2021/12/27 03:09:21;;;;;;;7.05;4.22;;;;;;;;;;4977474;28;20057;-64
2021/12/27 03:12:11;;;;;;;9.18;4.50;;;;;;;;;;4985443;28;20049;-64
2021/12/27 03:14:41;;;;;;;8.77;4.45;;;;;;;;;;4994389;28;20137;-64
2021/12/27 03:17:24;;;;;;;8.73;4.50;;;;;;;;;;4990361;28;20546;-64
2021/12/27 03:19:52;;;;;;;8.68;4.25;;;;;;;;;;4993064;28;20152;-64
2021/12/27 03:22:20;;;;;;;7.10;3.83;;;;;;;;;;4987275;28;20060;-64
2021/12/27 03:24:49;;;;;;;6.97;4.18;;;;;;;;;;4992348;28;20054;-64
2021/12/27 03:27:17;;;;;;;7.53;4.13;;;;;;;;;;4989353;28;20137;-64
2021/12/27 03:29:46;;;;;;;8.73;4.25;;;;;;;;;;4991219;28;20056;-64
2021/12/27 03:32:24;;;;;;;8.95;4.60;;;;;;;;;;4991661;28;20502;-64
2021/12/27 03:35:03;;;;;;;8.27;4.28;;;;;;;;;;5004263;28;20049;-64
2021/12/27 03:37:31;;;;;;;8.88;4.28;;;;;;;;;;4992634;28;20056;-64
2021/12/27 03:40:00;;;;;;;7.88;3.80;;;;;;;;;;4993263;28;20085;-64
2021/12/27 03:42:28;;;;;;;8.00;3.65;;;;;;;;;;4999909;28;20042;-64
2021/12/27 03:44:58;;;;;;;6.53;4.18;;;;;;;;;;4968461;28;20145;-64
2021/12/27 03:47:26;;;;;;;7.80;4.30;;;;;;;;;;4966730;28;20050;-64
2021/12/27 03:49:54;;;;;;;6.80;3.83;;;;;;;;;;4965181;28;20155;-64
2021/12/27 03:52:22;;;;;;;8.27;4.28;;;;;;;;;;4967421;28;21404;-64
2021/12/27 03:54:51;;;;;;;6.85;4.00;;;;;;;;;;4965097;28;20054;-64
2021/12/27 03:57:22;;;;;;;7.15;4.43;;;;;;;;;;4969646;28;20495;-64
2021/12/27 04:00:14;;;;;;;6.50;4.10;;;;;;;;;;4969939;28;21553;-64
2021/12/27 04:02:41;;;;;;;7.28;3.85;;;;;;;;;;4968458;28;20055;-64
2021/12/27 04:05:10;;;;;;;7.03;4.20;;;;;;;;;;4970949;28;20059;-64
2021/12/27 04:07:39;;;;;;;9.77;4.50;;;;;;;;;;4970707;28;20146;-64
2021/12/27 04:10:08;;;;;;;7.90;4.50;;;;;;;;;;4967748;28;20149;-64
2021/12/27 04:12:36;;;;;;;6.88;4.07;;;;;;;;;;4968966;28;20077;-64
2021/12/27 04:15:06;;;;;;;7.90;4.05;;;;;;;;;;4967151;28;20140;-64
2021/12/27 04:17:35;;;;;;;6.32;3.80;;;;;;;;;;4969970;28;20137;-64
2021/12/27 04:20:06;;;;;;;9.10;4.55;;;;;;;;;;4970699;28;20414;-64
2021/12/27 04:22:34;;;;;;;7.25;4.15;;;;;;;;;;4963816;28;20047;-64
2021/12/27 04:25:15;;;;;;;8.57;4.15;;;;;;;;;;4964297;28;20065;-64
2021/12/27 04:27:43;;;;;;;7.07;4.35;;;;;;;;;;4971055;28;20051;-64
2021/12/27 04:30:12;;;;;;;6.72;4.05;;;;;;;;;;4967846;28;20133;-64
2021/12/27 04:32:40;;;;;;;7.65;3.83;;;;;;;;;;4968222;28;20588;-64
2021/12/27 04:35:11;;;;;;;8.10;3.95;;;;;;;;;;4968017;28;20133;-64
2021/12/27 04:37:40;;;;;;;8.23;4.05;;;;;;;;;;4958285;28;20067;-64
2021/12/27 04:40:10;;;;;;;11.07;4.40;;;;;;;;;;4968905;28;20054;-64
2021/12/27 04:42:39;;;;;;;7.18;3.58;;;;;;;;;;4970730;28;20200;-64
2021/12/27 04:45:08;;;;;;;7.72;3.47;;;;;;;;;;4991329;28;20146;-64
2021/12/27 04:47:37;;;;;;;5.82;3.58;;;;;;;;;;4990643;28;20054;-64
2021/12/27 04:53:29;;;;;;;8.98;3.53;;;;;;;;;;4990527;28;20054;-64
2021/12/27 04:55:57;;;;;;;7.13;3.47;;;;;;;;;;4995408;28;20177;-64
2021/12/27 04:58:25;;;;;;;6.90;3.63;;;;;;;;;;4989217;28;20121;-64
2021/12/27 05:01:07;;;;;;;8.52;3.60;;;;;;;;;;2710163;28;10003304;-64
2021/12/27 05:03:36;;;;;;;6.78;3.55;;;;;;;;;;2923610;28;10001684;-64
2021/12/27 05:06:07;;;;;;;7.15;3.45;;;;;;;;;;4994927;28;20058;-64
2021/12/27 05:08:37;;;;;;;8.68;3.28;;;;;;;;;;4980873;28;20137;-64
2021/12/27 05:11:08;;;;;;;8.15;3.45;;;;;;;;;;4980403;28;20743;-64
2021/12/27 05:13:36;;;;;;;6.45;3.40;;;;;;;;;;4997249;28;20129;-64
2021/12/27 05:16:07;;;;;;;5.85;3.47;;;;;;;;;;4990612;28;20050;-64
2021/12/27 05:18:35;;;;;;;7.35;4.22;;;;;;;;;;4989166;28;20054;-64
2021/12/27 05:21:06;;;;;;;7.90;3.13;;;;;;;;;;4992650;28;20125;-64
2021/12/27 05:23:36;;;;;;;7.80;3.72;;;;;;;;;;4993285;28;20118;-64
2021/12/27 05:26:07;;;;;;;5.22;2.92;;;;;;;;;;4989239;28;20137;-64
2021/12/27 05:28:36;;;;;;;7.32;3.38;;;;;;;;;;5001709;28;20142;-64
2021/12/27 05:31:07;;;;;;;8.57;3.45;;;;;;;;;;4991710;28;20062;-64
2021/12/27 05:33:36;;;;;;;11.57;4.05;;;;;;;;;;4990356;28;20146;-64
2021/12/27 05:36:06;;;;;;;10.15;4.10;;;;;;;;;;4997581;28;20136;-64
2021/12/27 05:38:34;;;;;;;4.38;3.00;;;;;;;;;;4986047;28;20042;-64
2021/12/27 05:41:07;;;;;;;5.13;3.67;;;;;;;;;;4986950;28;20500;-65
2021/12/27 05:43:35;;;;;;;6.25;3.45;;;;;;;;;;4985057;28;20058;-65
2021/12/27 05:46:07;;;;;;;7.80;3.03;;;;;;;;;;4993499;28;20061;-64
2021/12/27 05:48:35;;;;;;;5.97;3.53;;;;;;;;;;4983505;28;20050;-65
2021/12/27 05:51:06;;;;;;;6.70;3.88;;;;;;;;;;4995745;28;20057;-65
2021/12/27 05:53:34;;;;;;;4.85;3.20;;;;;;;;;;4986419;28;20054;-65
2021/12/27 05:56:06;;;;;;;5.15;2.97;;;;;;;;;;4993962;28;20128;-65
2021/12/27 05:58:35;;;;;;;4.72;2.90;;;;;;;;;;5000384;28;20124;-65
2021/12/27 06:01:05;;;;;;;5.63;2.80;;;;;;;;;;4996457;28;20193;-65
2021/12/27 06:03:34;;;;;;;5.35;2.70;;;;;;;;;;4992497;28;20426;-65
2021/12/27 06:06:02;;;;;;;4.78;2.53;;;;;;;;;;4984488;28;20053;-65
2021/12/27 06:08:33;;;;;;;5.32;2.80;;;;;;;;;;4990561;28;20046;-65
2021/12/27 06:11:01;;;;;;;4.47;2.42;;;;;;;;;;4989538;28;20137;-65
2021/12/27 06:13:37;;;;;;;4.43;2.53;;;;;;;;;;4993371;28;20054;-65
2021/12/27 06:16:06;;;;;;;4.95;2.65;;;;;;;;;;4998735;28;20093;-65
2021/12/27 06:18:34;;;;;;;5.03;2.60;;;;;;;;;;4984379;28;20050;-65
2021/12/27 06:21:06;;;;;;;6.95;2.80;;;;;;;;;;4985683;28;20050;-65
2021/12/27 06:23:38;;;;;;;4.05;2.13;;;;;;;;;;4985668;28;20741;-65
2021/12/27 06:26:06;;;;;;;2.63;1.92;;;;;;;;;;4989637;28;20104;-65
2021/12/27 06:28:35;;;;;;;4.75;2.40;;;;;;;;;;4987401;28;20046;-65
2021/12/27 06:31:07;;;;;;;3.65;2.20;;;;;;;;;;4987030;28;20144;-65
2021/12/27 06:33:35;;;;;;;3.70;2.17;;;;;;;;;;4981698;28;20038;-65
2021/12/27 06:36:06;;;;;;;2.20;1.73;;;;;;;;;;4987279;28;20136;-65
2021/12/27 06:38:35;;;;;;;3.50;2.00;;;;;;;;;;4990281;28;20132;-65
2021/12/27 06:41:05;;;;;;;2.20;1.60;;;;;;;;;;4988323;28;20145;-65
2021/12/27 06:43:33;;;;;;;2.15;1.63;;;;;;;;;;4983886;28;20374;-64
2021/12/27 06:46:02;;;;;;;2.40;1.67;;;;;;;;;;4986411;28;20128;-64
2021/12/27 06:48:34;;;;;;;3.42;2.08;;;;;;;;;;4981542;28;20057;-64
2021/12/27 06:51:04;;;;;;;2.80;1.70;;;;;;;;;;4990659;28;20050;-64
2021/12/27 06:53:33;;;;;;;2.35;1.60;;;;;;;;;;4992052;28;20042;-64
2021/12/27 06:56:02;;;;;;;2.85;1.98;;;;;;;;;;4990014;28;20072;-64
2021/12/27 06:58:32;;;;;;;2.22;1.55;;;;;;;;;;4990476;28;20074;-64
2021/12/27 07:01:01;;;;;;;1.27;1.20;;;;;;;;;;952148;28;10002488;-64
2021/12/27 07:03:31;;;;;;;2.95;1.50;;;;;;;;;;4956962;28;20391;-64
2021/12/27 07:06:01;;;;;;;3.38;1.80;;;;;;;;;;4981137;28;20185;-64
2021/12/27 07:08:32;;;;;;;3.15;1.30;;;;;;;;;;4979170;28;20133;-64
2021/12/27 07:11:00;;;;;;;2.88;1.90;;;;;;;;;;4982806;28;20420;-64
2021/12/27 07:13:32;;;;;;;7.05;1.75;;;;;;;;;;4977219;28;21491;-64
2021/12/27 07:16:01;;;;;;;2.88;1.80;;;;;;;;;;4977473;28;20301;-64
2021/12/27 07:18:31;;;;;;;3.08;2.13;;;;;;;;;;4985421;28;20065;-64
2021/12/27 07:21:01;;;;;;;3.88;2.00;;;;;;;;;;4989746;28;20104;-64
2021/12/27 07:23:31;;;;;;;3.22;2.22;;;;;;;;;;4987625;28;20168;-64
2021/12/27 07:26:00;;;;;;;3.63;1.95;;;;;;;;;;4986076;28;21097;-64
2021/12/27 07:28:29;;;;;;;4.25;2.00;;;;;;;;;;4975113;28;20086;-64
2021/12/27 07:30:57;;;;;;;4.10;1.98;;;;;;;;;;4983640;28;20050;-64
2021/12/27 07:33:25;;;;;;;3.65;2.53;;;;;;;;;;4985486;28;20072;-64
2021/12/27 07:35:54;;;;;;;5.85;2.10;;;;;;;;;;4992045;28;20089;-64
2021/12/27 07:38:23;;;;;;;3.15;2.05;;;;;;;;;;4990063;28;20041;-64
2021/12/27 07:40:52;;;;;;;3.72;2.03;;;;;;;;;;4983122;28;20045;-64
2021/12/27 07:43:20;;;;;;;4.03;2.00;;;;;;;;;;4984070;28;20140;-64
2021/12/27 07:45:48;;;;;;;3.53;2.30;;;;;;;;;;4987781;28;20169;-64
2021/12/27 07:48:17;;;;;;;3.33;2.13;;;;;;;;;;4982778;28;20553;-64
2021/12/27 07:50:45;;;;;;;3.83;2.13;;;;;;;;;;4985377;28;20061;-64
2021/12/27 07:53:13;;;;;;;3.72;2.20;;;;;;;;;;4992996;28;20155;-64
2021/12/27 07:55:43;;;;;;;3.97;2.17;;;;;;;;;;4981420;28;20153;-64
2021/12/27 07:58:12;;;;;;;5.00;2.50;;;;;;;;;;4982755;28;20050;-64
2021/12/27 08:00:40;;;;;;;2.83;1.92;;;;;;;;;;4980882;28;20046;-64
2021/12/27 08:03:09;;;;;;;4.63;2.95;;;;;;;;;;4986210;28;20058;-64
2021/12/27 08:05:37;;;;;;;4.53;2.63;;;;;;;;;;4979479;28;20050;-64
2021/12/27 08:08:06;;;;;;;4.05;2.25;;;;;;;;;;4982109;28;20058;-64
2021/12/27 08:10:34;;;;;;;4.38;2.50;;;;;;;;;;4986023;28;20055;-64
2021/12/27 08:13:04;;;;;;;6.28;2.60;;;;;;;;;;4983874;28;20054;-64
2021/12/27 08:15:32;;;;;;;4.75;2.60;;;;;;;;;;4979103;28;20042;-64
2021/12/27 08:18:00;;;;;;;5.28;2.30;;;;;;;;;;4979776;28;20489;-64
2021/12/27 08:20:29;;;;;;;2.95;2.13;;;;;;;;;;4987609;28;20054;-64
2021/12/27 08:22:57;;;;;;;6.05;2.85;;;;;;;;;;4982907;28;20141;-64
2021/12/27 08:25:25;;;;;;;4.90;2.60;;;;;;;;;;4979929;28;20050;-64
2021/12/27 08:27:54;;;;;;;5.55;2.75;;;;;;;;;;4984025;28;20490;-65
2021/12/27 08:30:23;;;;;;;4.60;3.17;;;;;;;;;;4977231;28;20153;-65
2021/12/27 08:32:54;;;;;;;4.85;2.67;;;;;;;;;;4976632;28;20150;-65
2021/12/27 08:35:22;;;;;;;6.00;3.40;;;;;;;;;;4981444;28;20134;-65
2021/12/27 08:37:50;;;;;;;7.63;3.85;;;;;;;;;;4981622;28;20051;-65
2021/12/27 08:40:19;;;;;;;6.30;3.15;;;;;;;;;;4990286;28;20161;-65
2021/12/27 08:42:47;;;;;;;5.57;3.15;;;;;;;;;;4981802;28;20157;-65
2021/12/27 08:45:15;;;;;;;9.35;4.03;;;;;;;;;;4979926;28;20495;-65
2021/12/27 08:47:45;;;;;;;6.65;3.95;;;;;;;;;;4979817;28;20450;-65
2021/12/27 08:50:17;;;;;;;7.18;3.97;;;;;;;;;;4977514;28;20491;-65
2021/12/27 08:52:47;;;;;;;7.32;3.85;;;;;;;;;;4976315;28;20086;-65
2021/12/27 08:55:17;;;;;;;7.88;4.03;;;;;;;;;;4984143;28;20056;-65
2021/12/27 08:57:45;;;;;;;6.38;3.22;;;;;;;;;;4975763;28;20043;-65
2021/12/27 09:00:16;;;;;;;8.80;4.57;;;;;;;;;;4976842;28;20079;-65
2021/12/27 09:02:46;;;;;;;7.32;4.07;;;;;;;;;;4980510;28;20038;-65
2021/12/27 09:05:15;;;;;;;6.45;3.70;;;;;;;;;;4981149;28;20519;-65
2021/12/27 09:07:43;;;;;;;5.55;3.60;;;;;;;;;;4987680;28;20161;-65
2021/12/27 09:10:12;;;;;;;9.25;4.65;;;;;;;;;;4972884;28;20065;-65
2021/12/27 09:12:40;;;;;;;6.85;3.67;;;;;;;;;;4983145;28;20120;-65
2021/12/27 09:15:20;;;;;;;11.07;4.38;;;;;;;;;;4276844;28;10001367;-65
2021/12/27 09:17:51;;;;;;;8.70;4.20;;;;;;;;;;1718997;28;10002221;-65
2021/12/27 09:20:20;;;;;;;9.70;4.70;;;;;;;;;;4998435;28;20168;-65
2021/12/27 09:22:48;;;;;;;10.80;4.78;;;;;;;;;;4985391;28;20252;-65
2021/12/27 09:25:16;;;;;;;9.57;5.20;;;;;;;;;;4976897;28;20400;-65
2021/12/27 09:27:44;;;;;;;11.32;5.68;;;;;;;;;;4980329;28;20361;-65
2021/12/27 09:30:17;;;;;;;9.85;4.72;;;;;;;;;;4979920;28;20083;-65
2021/12/27 09:32:46;;;;;;;11.75;5.60;;;;;;;;;;4980656;28;20054;-65
2021/12/27 09:35:16;;;;;;;11.60;5.80;;;;;;;;;;4976098;28;20129;-65
2021/12/27 09:37:45;;;;;;;11.38;5.97;;;;;;;;;;4981687;28;20053;-65
2021/12/27 09:40:13;;;;;;;12.25;6.18;;;;;;;;;;4985280;28;20577;-65
2021/12/27 09:42:42;;;;;;;16.67;5.93;;;;;;;;;;4985020;28;20156;-65
2021/12/27 09:45:11;;;;;;;9.15;5.53;;;;;;;;;;4977058;28;20054;-65
2021/12/27 09:47:40;;;;;;;13.27;5.88;;;;;;;;;;4983475;28;20523;-65
2021/12/27 09:50:20;;;;;;;15.82;6.43;;;;;;;;;;4982441;28;20047;-65
2021/12/27 09:52:49;;;;;;;14.07;6.20;;;;;;;;;;4990381;28;20054;-65
2021/12/27 09:55:17;;;;;;;12.63;5.82;;;;;;;;;;4982112;28;20233;-65
2021/12/27 09:57:46;;;;;;;11.23;6.00;;;;;;;;;;4985081;28;20133;-65
2021/12/27 10:00:16;;;;;;;12.10;5.20;;;;;;;;;;4975209;28;20050;-65
2021/12/27 10:02:45;;;;;;;12.10;6.03;;;;;;;;;;4997315;28;20818;-65
2021/12/27 10:05:14;;;;;;;11.43;5.72;;;;;;;;;;4985487;28;20057;-65
2021/12/27 10:07:44;;;;;;;11.82;5.93;;;;;;;;;;4988911;28;20093;-65
2021/12/27 10:10:17;;;;;;;;;;;;;;;;;;4982021;28;20835;-65
2021/12/27 10:12:45;;;;;;;10.27;5.35;;;;;;;;;;4975553;28;20011;-65
2021/12/27 10:15:16;;;;;;;9.52;5.53;;;;;;;;;;4976052;28;20074;-65
2021/12/27 10:17:45;;;;;;;11.50;5.90;;;;;;;;;;4987183;28;20046;-65
2021/12/27 10:20:14;;;;;;;12.05;5.72;;;;;;;;;;4984483;28;20050;-65
2021/12/27 10:22:45;;;;;;;12.45;5.22;;;;;;;;;;4983941;28;20081;-65
2021/12/27 10:25:17;;;;;;;15.60;6.78;;;;;;;;;;4988611;28;20061;-66
2021/12/27 10:27:47;;;;;;;10.95;5.45;;;;;;;;;;4983905;28;20589;-66
2021/12/27 10:30:17;;;;;;;12.88;6.72;;;;;;;;;;4990442;28;20048;-65
2021/12/27 10:32:46;;;;;;;10.82;5.82;;;;;;;;;;4985239;28;20050;-65
2021/12/27 10:35:14;;;;;;;12.55;5.53;;;;;;;;;;4983393;28;20177;-65
2021/12/27 10:37:52;;;;;;;10.35;5.50;;;;;;;;;;4991532;28;20075;-65
2021/12/27 10:40:22;;;;;;;9.90;4.53;;;;;;;;;;4986290;28;20310;-66
2021/12/27 10:42:50;;;;;;;9.40;5.55;;;;;;;;;;4989501;28;20214;-65
2021/12/27 10:45:22;;;;;;;11.95;5.55;;;;;;;;;;4989777;28;20050;-65
2021/12/27 10:47:52;;;;;;;12.95;5.63;;;;;;;;;;4990286;28;20506;-66
2021/12/27 10:50:23;;;;;;;12.20;5.97;;;;;;;;;;4987949;28;20046;-66
2021/12/27 10:53:00;;;;;;;11.73;6.78;;;;;;;;;;4986252;28;20087;-66
2021/12/27 10:55:36;;;;;;;11.52;6.47;;;;;;;;;;4994180;28;20042;-66
2021/12/27 10:58:13;;;;;;;11.57;6.10;;;;;;;;;;4988724;28;20064;-66
2021/12/27 11:00:42;;;;;;;9.77;5.13;;;;;;;;;;4989896;28;20053;-66
2021/12/27 11:03:22;;;;;;;11.38;5.38;;;;;;;;;;4986694;28;20407;-65
2021/12/27 11:06:08;;;;;;;11.80;4.30;;;;;;;;;;2811013;28;10003322;-66
2021/12/27 11:08:39;;;;;;;8.73;5.00;;;;;;;;;;3264023;28;10001381;-66
2021/12/27 11:11:08;;;;;;;8.48;4.93;;;;;;;;;;4979441;28;20181;-66
2021/12/27 11:13:37;;;;;;;10.80;5.55;;;;;;;;;;4984438;28;20484;-66
2021/12/27 11:16:08;;;;;;;10.95;5.63;;;;;;;;;;4980294;28;20149;-66
2021/12/27 11:18:36;;;;;;;10.48;5.55;;;;;;;;;;4988078;28;20583;-66
2021/12/27 11:21:11;;;;;;;9.43;5.35;;;;;;;;;;4991008;28;20049;-66
2021/12/27 11:23:41;;;;;;;10.30;5.68;;;;;;;;;;4990117;28;20046;-66
2021/12/27 11:26:28;;;;;;;12.02;6.05;;;;;;;;;;4985614;28;20490;-66
2021/12/27 11:29:09;;;;;;;11.13;5.22;;;;;;;;;;4989982;28;20144;-66
2021/12/27 11:31:38;;;;;;;10.27;5.65;;;;;;;;;;4987473;28;20078;-66
2021/12/27 11:34:08;;;;;;;9.82;5.63;;;;;;;;;;4989111;28;20069;-66
2021/12/27 11:36:37;;;;;;;9.88;4.63;;;;;;;;;;4988241;28;20590;-65
2021/12/27 11:39:20;;;;;;;15.77;5.47;;;;;;;;;;4987346;28;20153;-65
2021/12/27 11:41:58;;;;;;;10.93;4.95;;;;;;;;;;4980647;28;20463;-66
2021/12/27 11:44:34;;;;;;;13.85;5.47;;;;;;;;;;4990056;28;20134;-66
2021/12/27 11:47:02;;;;;;;11.73;5.22;;;;;;;;;;4989783;28;20077;-65
2021/12/27 11:49:35;;;;;;;9.05;5.20;;;;;;;;;;4988234;28;20403;-65
2021/12/27 11:52:14;;;;;;;8.73;5.15;;;;;;;;;;4989799;28;20050;-65
2021/12/27 11:54:49;;;;;;;9.32;5.13;;;;;;;;;;4988166;28;20144;-65
2021/12/27 11:57:36;;;;;;;10.25;5.15;;;;;;;;;;4986466;28;20047;-65
2021/12/27 12:00:32;;;;;;;9.15;5.05;;;;;;;;;;4980617;28;20512;-65
2021/12/27 12:03:10;;;;;;;9.15;4.88;;;;;;;;;;4984632;28;20070;-65
2021/12/27 12:05:42;;;;;;;12.40;5.18;;;;;;;;;;4987497;28;20050;-65
2021/12/27 12:08:11;;;;;;;8.38;4.95;;;;;;;;;;4985565;28;20070;-66
2021/12/27 12:10:49;;;;;;;9.63;4.95;;;;;;;;;;4988981;28;20450;-65
2021/12/27 12:13:23;;;;;;;9.15;4.95;;;;;;;;;;4984955;28;20069;-65
2021/12/27 12:16:08;;;;;;;7.78;4.95;;;;;;;;;;4985259;28;20130;-65
2021/12/27 12:18:39;;;;;;;9.88;5.03;;;;;;;;;;4987129;28;20153;-65
2021/12/27 12:21:07;;;;;;;9.85;4.85;;;;;;;;;;4990970;28;20140;-65
2021/12/27 12:23:58;;;;;;;9.90;4.95;;;;;;;;;;4990164;28;20049;-65
2021/12/27 12:26:28;;;;;;;8.88;5.18;;;;;;;;;;4985988;28;20046;-65
2021/12/27 12:29:00;;;;;;;7.47;4.53;;;;;;;;;;4987302;28;20403;-65
2021/12/27 12:31:30;;;;;;;9.55;4.75;;;;;;;;;;4985550;28;20491;-65
2021/12/27 12:34:08;;;;;;;10.80;5.30;;;;;;;;;;4992576;28;20450;-66
2021/12/27 12:36:45;;;;;;;12.30;4.88;;;;;;;;;;4983299;28;20582;-66
2021/12/27 12:39:13;;;;;;;8.10;4.70;;;;;;;;;;4989503;28;20054;-66
2021/12/27 12:41:43;;;;;;;8.65;4.90;;;;;;;;;;4989686;28;20124;-66
2021/12/27 12:44:11;;;;;;;8.75;4.28;;;;;;;;;;4978660;28;20383;-66
2021/12/27 12:46:45;;;;;;;8.35;4.20;;;;;;;;;;4983429;28;20053;-66
2021/12/27 12:49:15;;;;;;;8.50;4.18;;;;;;;;;;4983984;28;20145;-65
2021/12/27 12:51:45;;;;;;;7.13;4.20;;;;;;;;;;4993648;28;20054;-66
2021/12/27 12:54:26;;;;;;;6.32;3.90;;;;;;;;;;4980458;28;20082;-65
2021/12/27 12:56:56;;;;;;;6.38;3.92;;;;;;;;;;4978965;28;20145;-65
2021/12/27 12:59:26;;;;;;;7.60;3.45;;;;;;;;;;4985369;28;20054;-65
2021/12/27 13:01:55;;;;;;;8.60;4.13;;;;;;;;;;4973463;28;20077;-65
2021/12/27 13:04:24;;;;;;;11.25;5.00;;;;;;;;;;4979840;28;20057;-66
2021/12/27 13:06:52;;;;;;;10.73;5.43;;;;;;;;;;4983701;28;20050;-66
2021/12/27 13:09:21;;;;;;;10.38;5.43;;;;;;;;;;4993272;28;20052;-66
2021/12/27 13:11:55;;;;;;;12.63;6.68;;;;;;;;;;4989329;28;20768;-65
2021/12/27 13:14:44;;;;;;;13.93;6.98;;;;;;;;;;607422;28;10022951;-67
2021/12/27 13:17:16;;;;;;;24.33;9.85;;;;;;;;;;4984020;28;20390;-66
2021/12/27 13:20:00;;;;;;;20.92;9.52;;;;;;;;;;4992935;28;20116;-66
2021/12/27 13:22:40;;;;;;;22.05;10.02;;;;;;;;;;4991586;28;20679;-66
2021/12/27 13:25:09;;;;;;;26.27;11.55;;;;;;;;;;4989375;28;20093;-66
2021/12/27 13:27:38;;;;;;;27.95;11.98;;;;;;;;;;4987560;28;20046;-66
2021/12/27 13:30:08;;;;;;;25.65;12.27;;;;;;;;;;4982979;28;20400;-66
2021/12/27 13:32:37;;;;;;;28.77;12.13;;;;;;;;;;4985918;28;20041;-66
2021/12/27 13:35:05;;;;;;;25.42;10.88;;;;;;;;;;4984174;28;20148;-66
2021/12/27 13:37:36;;;;;;;26.58;12.05;;;;;;;;;;4992961;28;20050;-66
2021/12/27 13:40:09;;;;;;;21.05;10.98;;;;;;;;;;4986073;28;20374;-67
2021/12/27 13:42:39;;;;;;;25.65;10.98;;;;;;;;;;4990367;28;20089;-66
2021/12/27 13:45:08;;;;;;;24.13;11.60;;;;;;;;;;4982990;28;20570;-66
2021/12/27 13:47:37;;;;;;;28.38;12.55;;;;;;;;;;4993928;28;20517;-66
2021/12/27 13:50:07;;;;;;;22.48;11.40;;;;;;;;;;4985262;28;20051;-66
2021/12/27 13:52:45;;;;;;;30.80;12.57;;;;;;;;;;4989297;28;20046;-66
2021/12/27 13:55:24;;;;;;;25.23;11.80;;;;;;;;;;4985387;28;20054;-66
2021/12/27 13:57:55;;;;;;;24.85;12.20;;;;;;;;;;4991574;28;20061;-66
2021/12/27 14:00:27;;;;;;;27.92;12.95;;;;;;;;;;4988984;28;20133;-66
2021/12/27 14:02:55;;;;;;;28.02;12.45;;;;;;;;;;4987507;28;20046;-66
2021/12/27 14:05:27;;;;;;;26.50;12.18;;;;;;;;;;4992655;28;20053;-66
2021/12/27 14:08:08;;;;;;;27.70;12.25;;;;;;;;;;4995165;28;20042;-66
2021/12/27 14:10:37;;;;;;;30.88;12.95;;;;;;;;;;4990336;28;20104;-66
2021/12/27 14:13:07;;;;;;;29.98;13.77;;;;;;;;;;4991689;28;20058;-66
2021/12/27 14:15:38;;;;;;;30.85;12.68;;;;;;;;;;4984697;28;20045;-67
2021/12/27 14:18:10;;;;;;;25.42;11.90;;;;;;;;;;4982378;28;20165;-66
2021/12/27 14:20:38;;;;;;;29.00;13.60;;;;;;;;;;4978576;28;20145;-66
2021/12/27 14:23:08;;;;;;;30.52;12.98;;;;;;;;;;4983653;28;21035;-66
2021/12/27 14:25:36;;;;;;;26.90;11.68;;;;;;;;;;4984906;28;20169;-66
2021/12/27 14:28:11;;;;;;;28.30;14.00;;;;;;;;;;4992766;28;20495;-66
2021/12/27 14:30:39;;;;;;;;;;;;;;;;;;4979375;28;20054;-66
2021/12/27 14:33:09;;;;;;;28.48;11.57;;;;;;;;;;4983667;28;20579;-66
2021/12/27 14:35:39;;;;;;;31.15;13.98;;;;;;;;;;4985141;28;20050;-66
2021/12/27 14:38:08;;;;;;;29.63;12.18;;;;;;;;;;4981500;28;20510;-66
2021/12/27 14:40:37;;;;;;;30.33;13.23;;;;;;;;;;4982082;28;20050;-66
2021/12/27 14:43:07;;;;;;;30.73;13.55;;;;;;;;;;4982593;28;20148;-66
2021/12/27 14:45:38;;;;;;;33.25;13.90;;;;;;;;;;4974405;28;20065;-66
2021/12/27 14:48:07;;;;;;;31.38;13.48;;;;;;;;;;4984190;28;20088;-66
2021/12/27 14:50:35;;;;;;;30.20;13.15;;;;;;;;;;4987129;28;20049;-66
2021/12/27 14:53:06;;;;;;;30.83;13.63;;;;;;;;;;4996505;28;20051;-66
2021/12/27 14:55:34;;;;;;;34.05;14.38;;;;;;;;;;4985692;28;20050;-67
2021/12/27 14:58:03;;;;;;;35.17;14.00;;;;;;;;;;4994621;28;20046;-67
2021/12/27 15:00:34;;;;;;;32.67;13.30;;;;;;;;;;4983816;28;20133;-67